Davenport, IA

4:42 AM CDT on August 28, 2015 (GMT -0500)
Ridgeview | | Change Station
CLOSE
Current Station
Personal Weather Station
Location: Davenport, IA
Elevation: 735 ft
Nearby Weather Stations

Elev 735 ft 41.59 °N, 90.60 °W | Updated 12 minutes ago

Clear
Clear
63.7 °F
Feels Like 63.7 °F
N
0.0
Wind Variable Wind from South

Today
High -- | Low -- °F
--% Chance of Precip.
Yesterday
High -- | Low -- °F
Precip. -- in
6:24 AM 7:42 PM
Waxing Gibbous, 97% visible
Pressure 30.08 in
Visibility 10.0 miles
Clouds Clear
Dew Point 60 °F
Humidity 89%
Rainfall 0.00 in
Snow Depth Not available.
UV 0 out of 12
Pollen 9.80 out of 12
Air Quality Not available.
Flu Activity Not available.
METAR KDVN 280852Z AUTO 15005KT 10SM CLR 17/14 A3008 RMK AO2 SLP184 T01720144 58001 $
Pressure 30.08 in
Visibility 10.0 miles
Clouds Clear
Dew Point 60 °F
Humidity 89%
Rainfall 0.00 in
Snow Depth Not available.
UV 0 out of 12
Pollen 9.80 out of 12
Air Quality Not available.
Flu Activity Not available.
METAR KDVN 280852Z AUTO 15005KT 10SM CLR 17/14 A3008 RMK AO2 SLP184 T01720144 58001 $

10-Day Weather Forecast

×

Almanac

Astronomy

Aug. 28, 2015 Rise Set
Actual Time
Civil Twilight
Nautical Twilight
Astronomical Twilight
Moon
Length of Visible Light
Length of Day
Tomorrow will be .
, % of the Moon is Illuminated

Today's Extremes

State Highs State Lows

Community

WunderPhotos

Upload Photos

1,850,352 photos uploaded!

WunderBlogs® & News

Nearby

Air Quality

  Air Quality AQ Index Pollutant
Not available.

Snow Depth

Station Depth Elevation

Earthquake Activity

City Distance Mag. Time & Date
Minimum magnitude displayed is 2.5.

Coastal Water Temperatures

Place Temperature

Stations

Nearby Weather Stations

Station Location Temp. Windchill Dew Point Humidity Wind Precip. Elev Updated Type